Arabi, Georgia
Current Conditions -  °F | °C
As of 9:15 PM on Sunday 23 Nov 2014 (Local Time) from KCKF Reporting Station
Overcast Overcast  
Wind Chill: 67°   Ceiling: 1100
Heat Index: 67°   Visibility: 10mi
Dew Point: 64°   Wind: 9mph
Humidity: 89%   Direction: 240°WSW
Pressure: 29.82"   Gusts: NA
Location:  31.83°N, 83.74°W
Report Text: KCKF 240215Z AUTO 24008KT 10SM OVC011 20/18 A2982 RMK AO2 LTG DSNT SE AND S T01950176
Loading
Personal Weather Stations






























Interactive Weather Map New forecast layout! Learn more

10-Day Weather Forecast

Advertisements
Track Severe Weather on mobile